createdAt,value
2018-12-11T00:01:28.654Z,4.30
2018-12-11T00:03:58.686Z,4.30
2018-12-11T00:06:29.330Z,4.20
2018-12-11T00:08:59.639Z,4.10
2018-12-11T00:11:34.014Z,4.10
2018-12-11T00:14:03.568Z,4.00
2018-12-11T00:16:34.495Z,4.00
2018-12-11T00:19:04.024Z,3.90
2018-12-11T00:21:34.118Z,3.80
2018-12-11T00:24:04.104Z,3.80
2018-12-11T00:26:34.790Z,3.80
2018-12-11T00:29:04.486Z,3.70
2018-12-11T00:31:36.589Z,3.80
2018-12-11T00:34:05.763Z,3.80
2018-12-11T00:36:35.973Z,3.80
2018-12-11T00:39:08.272Z,3.90
2018-12-11T00:41:38.656Z,3.90
2018-12-11T00:44:09.472Z,3.80
2018-12-11T00:46:40.622Z,3.70
2018-12-11T00:49:11.241Z,3.80
2018-12-11T00:51:40.328Z,3.70
2018-12-11T00:54:12.166Z,3.70
2018-12-11T00:56:43.269Z,3.70
2018-12-11T00:59:12.434Z,3.70
2018-12-11T01:01:41.926Z,3.60
2018-12-11T01:04:11.327Z,3.60
2018-12-11T01:06:41.589Z,3.60
2018-12-11T01:09:12.575Z,3.60
2018-12-11T01:11:43.465Z,3.50
2018-12-11T01:14:13.511Z,3.50
2018-12-11T01:16:44.719Z,3.50
2018-12-11T01:19:14.909Z,3.60
2018-12-11T01:21:46.444Z,3.50
2018-12-11T01:24:16.511Z,3.50
2018-12-11T01:26:46.368Z,3.40
2018-12-11T01:29:16.437Z,3.30
2018-12-11T01:31:46.555Z,3.40
2018-12-11T01:34:17.968Z,3.40
2018-12-11T01:36:47.999Z,3.40
2018-12-11T01:39:17.533Z,3.30
2018-12-11T01:41:47.525Z,3.30
2018-12-11T01:44:17.089Z,3.30
2018-12-11T01:46:46.909Z,3.20
2018-12-11T01:49:17.934Z,3.30
2018-12-11T01:51:47.091Z,3.20
2018-12-11T01:54:16.791Z,3.20
2018-12-11T01:56:46.619Z,3.20
2018-12-11T01:59:16.232Z,3.20
2018-12-11T02:01:46.007Z,3.20
2018-12-11T02:04:16.576Z,3.30
2018-12-11T02:06:47.973Z,3.40
2018-12-11T02:09:18.458Z,3.40
2018-12-11T02:11:48.996Z,3.40
2018-12-11T02:14:18.466Z,3.40
2018-12-11T02:16:49.136Z,3.60
2018-12-11T02:19:18.810Z,3.60
2018-12-11T02:21:50.047Z,3.60
2018-12-11T02:24:19.483Z,3.60
2018-12-11T02:26:49.095Z,3.60
2018-12-11T02:29:18.605Z,3.60
2018-12-11T02:31:49.705Z,3.60
2018-12-11T02:34:19.280Z,3.70
2018-12-11T02:36:48.963Z,3.70
2018-12-11T02:39:20.776Z,3.70
2018-12-11T02:41:50.835Z,3.70
2018-12-11T02:44:21.293Z,3.70
2018-12-11T02:46:51.131Z,3.70
2018-12-11T02:49:20.577Z,3.60
2018-12-11T02:51:50.284Z,3.60
2018-12-11T02:54:20.459Z,3.60
2018-12-11T02:56:50.849Z,3.60
2018-12-11T02:59:20.876Z,3.60
2018-12-11T03:01:50.963Z,3.60
2018-12-11T03:04:21.607Z,3.60
2018-12-11T03:06:52.644Z,3.70
2018-12-11T03:09:23.340Z,3.70
2018-12-11T03:11:53.318Z,3.70
2018-12-11T03:14:23.257Z,3.60
2018-12-11T03:16:53.663Z,3.60
2018-12-11T03:19:23.554Z,3.50
2018-12-11T03:21:54.298Z,3.50
2018-12-11T03:24:24.653Z,3.60
2018-12-11T03:26:54.728Z,3.60
2018-12-11T03:29:24.889Z,3.70
2018-12-11T03:31:55.287Z,3.70
2018-12-11T03:34:24.820Z,3.70
2018-12-11T03:36:55.197Z,3.70
2018-12-11T03:39:25.430Z,3.70
2018-12-11T03:41:55.211Z,3.80
2018-12-11T03:44:25.945Z,3.70
2018-12-11T03:46:56.367Z,3.80
2018-12-11T03:49:27.834Z,3.80
2018-12-11T03:51:59.002Z,3.90
2018-12-11T03:54:30.170Z,3.80
2018-12-11T03:57:01.546Z,3.90
2018-12-11T03:59:31.299Z,3.90
2018-12-11T04:02:01.057Z,3.90
2018-12-11T04:04:31.059Z,3.90
2018-12-11T04:07:02.271Z,4.00
2018-12-11T04:09:32.061Z,4.00
2018-12-11T04:12:02.893Z,3.90
2018-12-11T04:14:32.632Z,4.00
2018-12-11T04:17:03.789Z,3.90
2018-12-11T04:19:34.525Z,3.90
2018-12-11T04:22:07.387Z,3.90
2018-12-11T04:24:36.767Z,3.90
2018-12-11T04:27:06.863Z,3.90
2018-12-11T04:29:36.648Z,3.90
2018-12-11T04:32:06.989Z,3.90
2018-12-11T04:34:36.958Z,3.90
2018-12-11T04:37:08.368Z,3.90
2018-12-11T04:39:38.784Z,4.00
2018-12-11T04:42:08.915Z,4.00
2018-12-11T04:44:38.994Z,4.00
2018-12-11T04:47:11.434Z,4.00
2018-12-11T04:49:41.725Z,3.90
2018-12-11T04:52:12.218Z,4.00
2018-12-11T04:54:42.762Z,3.90
2018-12-11T04:57:12.212Z,3.90
2018-12-11T04:59:41.833Z,4.00
2018-12-11T05:02:12.612Z,3.90
2018-12-11T05:04:42.329Z,3.70
2018-12-11T05:07:13.597Z,3.60
2018-12-11T05:09:43.130Z,3.80
2018-12-11T05:12:14.240Z,4.10
2018-12-11T05:14:44.425Z,4.10
2018-12-11T05:17:15.233Z,4.20
2018-12-11T05:19:45.223Z,4.20
2018-12-11T05:22:14.752Z,4.20
2018-12-11T05:24:45.158Z,4.20
2018-12-11T05:27:14.456Z,4.10
2018-12-11T05:29:45.113Z,4.00
2018-12-11T05:32:15.953Z,4.10
2018-12-11T05:34:47.825Z,4.20
2018-12-11T05:37:18.346Z,4.20
2018-12-11T05:39:48.226Z,4.20
2018-12-11T05:42:17.366Z,4.20
2018-12-11T05:44:47.108Z,4.20
2018-12-11T05:47:16.862Z,4.10
2018-12-11T05:49:46.629Z,4.10
2018-12-11T05:52:17.312Z,4.10
2018-12-11T05:54:47.496Z,4.10
2018-12-11T05:57:19.072Z,4.10
2018-12-11T05:59:48.956Z,4.10
2018-12-11T06:02:21.210Z,3.90
2018-12-11T06:04:51.724Z,3.90
2018-12-11T06:07:21.863Z,3.90
2018-12-11T06:09:51.410Z,3.80
2018-12-11T06:12:22.068Z,3.60
2018-12-11T06:14:51.535Z,3.50
2018-12-11T06:17:21.471Z,3.60
2018-12-11T06:19:51.466Z,3.60
2018-12-11T06:22:23.576Z,3.50
2018-12-11T06:24:53.938Z,3.40
2018-12-11T06:27:23.436Z,3.40
2018-12-11T06:29:53.632Z,3.50
2018-12-11T06:32:23.714Z,3.70
2018-12-11T06:34:53.512Z,3.80
2018-12-11T06:37:24.814Z,3.80
2018-12-11T06:39:54.541Z,3.90
2018-12-11T06:42:24.889Z,4.00
2018-12-11T06:44:54.720Z,3.90
2018-12-11T06:47:24.412Z,3.90
2018-12-11T06:49:53.853Z,3.90
2018-12-11T06:52:23.597Z,3.90
2018-12-11T06:54:54.858Z,3.90
2018-12-11T06:57:25.486Z,3.80
2018-12-11T06:59:55.326Z,3.80
2018-12-11T07:02:24.516Z,3.90
2018-12-11T07:04:54.697Z,3.90
2018-12-11T07:07:26.106Z,3.90
2018-12-11T07:09:56.500Z,3.90
2018-12-11T07:12:26.439Z,3.90
2018-12-11T07:14:55.934Z,4.00
2018-12-11T07:17:25.464Z,4.00
2018-12-11T07:19:55.453Z,4.00
2018-12-11T07:22:25.843Z,4.00
2018-12-11T07:24:59.407Z,4.00
2018-12-11T07:27:29.579Z,4.00
2018-12-11T07:30:00.622Z,4.00
2018-12-11T07:32:30.407Z,4.00
2018-12-11T07:35:00.852Z,4.00
2018-12-11T07:37:29.935Z,4.00
2018-12-11T07:40:00.663Z,4.00
2018-12-11T07:42:30.633Z,4.00
2018-12-11T07:45:03.074Z,4.00
2018-12-11T07:47:33.391Z,4.10
2018-12-11T07:50:03.461Z,4.00
2018-12-11T07:52:33.885Z,4.10
2018-12-11T07:55:03.450Z,4.00
2018-12-11T07:57:33.487Z,4.00
2018-12-11T08:00:03.666Z,4.00
2018-12-11T08:02:33.713Z,4.10
2018-12-11T08:05:03.329Z,4.20
2018-12-11T08:07:33.021Z,4.20
2018-12-11T08:10:03.062Z,4.20
2018-12-11T08:12:32.804Z,4.20
2018-12-11T08:15:02.030Z,4.20
2018-12-11T08:17:31.821Z,4.20
2018-12-11T08:20:01.380Z,4.20
2018-12-11T08:22:31.521Z,4.30
2018-12-11T08:25:01.500Z,4.30
2018-12-11T08:27:31.689Z,4.30
2018-12-11T08:30:01.703Z,4.30
2018-12-11T08:32:32.229Z,4.30
2018-12-11T08:35:02.275Z,4.40
2018-12-11T08:37:32.331Z,4.40
2018-12-11T08:40:02.863Z,4.40
2018-12-11T08:42:32.423Z,4.40
2018-12-11T08:45:03.595Z,4.30
2018-12-11T08:47:34.924Z,4.40
2018-12-11T08:50:05.662Z,4.50
2018-12-11T08:52:35.256Z,4.60
2018-12-11T08:55:05.174Z,4.60
2018-12-11T08:57:35.916Z,4.60
2018-12-11T09:00:07.106Z,4.60
2018-12-11T09:02:38.241Z,4.70
2018-12-11T09:05:07.588Z,4.70
2018-12-11T09:07:37.260Z,4.80
2018-12-11T09:10:08.016Z,4.70
2018-12-11T09:12:37.701Z,4.70
2018-12-11T09:15:07.986Z,4.80
2018-12-11T09:17:38.327Z,4.90
2018-12-11T09:20:08.126Z,5.00
2018-12-11T09:22:38.877Z,5.00
2018-12-11T09:25:09.834Z,5.00
2018-12-11T09:27:39.914Z,5.10
2018-12-11T09:30:10.383Z,5.20
2018-12-11T09:32:39.983Z,5.20
2018-12-11T09:35:10.710Z,5.30
2018-12-11T09:37:40.857Z,5.30
2018-12-11T09:40:10.409Z,5.30
2018-12-11T09:42:41.662Z,5.30
2018-12-11T09:45:11.509Z,5.40
2018-12-11T09:47:41.486Z,5.40
2018-12-11T09:50:12.521Z,5.30
2018-12-11T09:52:43.949Z,5.40
2018-12-11T09:55:13.437Z,5.40
2018-12-11T09:57:45.209Z,5.50
2018-12-11T10:00:15.783Z,5.50
2018-12-11T10:02:46.056Z,5.50
2018-12-11T10:05:16.775Z,5.50
2018-12-11T10:07:46.814Z,5.60
2018-12-11T10:10:17.063Z,5.70
2018-12-11T10:12:46.661Z,5.80
2018-12-11T10:15:17.927Z,5.80
2018-12-11T10:17:47.587Z,5.90
2018-12-11T10:20:18.545Z,5.90
2018-12-11T10:22:48.491Z,6.00
2018-12-11T10:25:18.339Z,6.10
2018-12-11T10:27:48.559Z,6.00
2018-12-11T10:30:17.938Z,6.10
2018-12-11T10:32:53.279Z,6.10
2018-12-11T10:35:23.634Z,6.40
2018-12-11T10:37:53.608Z,6.60
2018-12-11T10:40:23.702Z,6.70
2018-12-11T10:42:53.623Z,7.00
2018-12-11T10:45:23.180Z,7.00
2018-12-11T10:47:53.502Z,7.20
2018-12-11T10:50:23.779Z,7.10
2018-12-11T10:52:53.292Z,7.10
2018-12-11T10:55:23.153Z,7.10
2018-12-11T10:57:54.928Z,7.10
2018-12-11T11:00:30.298Z,7.00
2018-12-11T11:03:05.108Z,7.10
2018-12-11T11:05:35.873Z,7.10
2018-12-11T11:08:05.818Z,7.10
2018-12-11T11:10:37.239Z,7.80
2018-12-11T11:13:07.684Z,8.30
2018-12-11T11:15:39.116Z,8.70
2018-12-11T11:18:09.985Z,9.20
2018-12-11T11:20:39.568Z,9.30
2018-12-11T11:23:08.819Z,9.50
2018-12-11T11:25:39.019Z,9.90
2018-12-11T11:28:10.649Z,10.20
2018-12-11T11:30:40.837Z,10.30
2018-12-11T11:33:11.469Z,9.60
2018-12-11T11:35:40.941Z,9.80
2018-12-11T11:38:11.087Z,9.90
2018-12-11T11:40:40.505Z,10.10
2018-12-11T11:43:10.653Z,10.10
2018-12-11T11:45:40.299Z,9.80
2018-12-11T11:48:09.539Z,9.60
2018-12-11T11:50:41.112Z,9.60
2018-12-11T11:53:11.333Z,9.50
2018-12-11T11:55:41.126Z,9.40
2018-12-11T11:58:10.805Z,9.20
2018-12-11T12:00:40.969Z,8.80
2018-12-11T12:03:10.919Z,8.60
2018-12-11T12:05:40.805Z,8.40
2018-12-11T12:08:10.208Z,8.40
2018-12-11T12:10:41.418Z,8.60
2018-12-11T12:13:11.511Z,8.60
2018-12-11T12:15:43.558Z,8.50
2018-12-11T12:18:13.817Z,8.50
2018-12-11T12:20:43.486Z,8.50
2018-12-11T12:23:13.321Z,8.40
2018-12-11T12:25:45.404Z,8.30
2018-12-11T12:28:15.558Z,8.30
2018-12-11T12:30:45.960Z,8.20
2018-12-11T12:33:15.773Z,7.90
2018-12-11T12:35:45.565Z,7.90
2018-12-11T12:38:16.200Z,7.70
2018-12-11T12:40:46.144Z,7.80
2018-12-11T12:43:15.996Z,7.70
2018-12-11T12:45:46.015Z,7.70
2018-12-11T12:48:15.700Z,7.70
2018-12-11T12:50:46.014Z,7.90
2018-12-11T12:53:15.940Z,7.70
2018-12-11T12:55:46.372Z,7.70
2018-12-11T12:58:16.857Z,7.60
2018-12-11T13:00:47.366Z,7.70
2018-12-11T13:03:17.342Z,7.70
2018-12-11T13:05:47.752Z,7.70
2018-12-11T13:08:18.184Z,7.60
2018-12-11T13:10:48.565Z,7.70
2018-12-11T13:13:18.753Z,7.60
2018-12-11T13:15:49.993Z,7.50
2018-12-11T13:18:19.473Z,7.50
2018-12-11T13:20:48.718Z,7.60
2018-12-11T13:23:17.788Z,7.50
2018-12-11T13:25:46.972Z,7.50
2018-12-11T13:28:16.102Z,7.50
2018-12-11T13:30:45.624Z,7.60
2018-12-11T13:33:14.858Z,7.60
2018-12-11T13:35:44.284Z,7.60
2018-12-11T13:38:13.390Z,7.60
2018-12-11T13:40:42.932Z,7.60
2018-12-11T13:43:11.996Z,7.50
2018-12-11T13:45:41.252Z,7.40
2018-12-11T13:48:10.572Z,7.50
2018-12-11T13:50:39.997Z,7.40
2018-12-11T13:53:09.062Z,7.40
2018-12-11T13:55:38.262Z,7.40
2018-12-11T13:58:07.396Z,7.30
2018-12-11T14:00:36.562Z,7.30
2018-12-11T14:03:05.622Z,7.30
2018-12-11T14:05:35.856Z,7.40
2018-12-11T14:08:05.256Z,7.40
2018-12-11T14:10:34.438Z,7.20
2018-12-11T14:13:03.689Z,7.10
2018-12-11T14:15:32.800Z,7.00
2018-12-11T14:18:01.930Z,7.00
2018-12-11T14:20:31.818Z,7.00
2018-12-11T14:23:00.949Z,6.90
2018-12-11T14:25:30.206Z,6.80
2018-12-11T14:27:59.384Z,6.80
2018-12-11T14:30:28.645Z,6.80
2018-12-11T14:32:57.777Z,6.70
2018-12-11T14:35:27.048Z,6.70
2018-12-11T14:37:56.183Z,6.70
2018-12-11T14:40:25.577Z,6.70
2018-12-11T14:42:54.779Z,6.60
2018-12-11T14:45:24.063Z,6.50
2018-12-11T14:47:53.159Z,6.40
2018-12-11T14:50:22.375Z,6.40
2018-12-11T14:52:51.539Z,6.40
2018-12-11T14:55:20.881Z,6.30
2018-12-11T14:57:50.085Z,6.20
2018-12-11T15:00:19.388Z,6.20
2018-12-11T15:02:48.875Z,6.30
2018-12-11T15:05:18.781Z,6.20
2018-12-11T15:07:48.163Z,6.20
2018-12-11T15:10:19.893Z,6.20
2018-12-11T15:12:49.693Z,6.30
2018-12-11T15:15:19.028Z,6.30
2018-12-11T15:17:48.345Z,6.30
2018-12-11T15:20:17.672Z,6.30
2018-12-11T15:22:46.844Z,6.30
2018-12-11T15:25:22.567Z,6.40
2018-12-11T15:27:51.639Z,6.40
2018-12-11T15:30:22.837Z,6.60
2018-12-11T15:32:52.049Z,6.50
2018-12-11T15:35:21.145Z,6.50
2018-12-11T15:37:50.487Z,6.50
2018-12-11T15:40:19.864Z,6.50
2018-12-11T15:42:49.216Z,6.40
2018-12-11T15:45:18.382Z,6.50
2018-12-11T15:47:50.314Z,6.50
2018-12-11T15:50:19.568Z,6.30
2018-12-11T15:52:48.694Z,6.40
2018-12-11T15:55:19.320Z,6.40
2018-12-11T15:57:48.623Z,6.30
2018-12-11T16:00:18.778Z,6.30
2018-12-11T16:02:48.991Z,6.20
2018-12-11T16:05:18.526Z,6.20
2018-12-11T16:07:50.662Z,6.20
2018-12-11T16:10:19.916Z,6.20
2018-12-11T16:12:49.112Z,6.30
2018-12-11T16:15:18.254Z,6.30
2018-12-11T16:17:47.404Z,6.30
2018-12-11T16:20:16.773Z,6.40
2018-12-11T16:22:46.099Z,6.40
2018-12-11T16:25:15.516Z,6.40
2018-12-11T16:27:44.884Z,6.40
2018-12-11T16:30:14.179Z,6.60
2018-12-11T16:32:43.593Z,6.40
2018-12-11T16:35:13.824Z,6.40
2018-12-11T16:37:43.044Z,6.30
2018-12-11T16:40:12.373Z,6.10
2018-12-11T16:42:42.140Z,6.10
2018-12-11T16:45:11.362Z,6.10
2018-12-11T16:47:40.509Z,6.10
2018-12-11T16:50:10.016Z,6.20
2018-12-11T16:52:39.113Z,6.10
2018-12-11T16:55:09.310Z,6.10
2018-12-11T16:57:38.505Z,6.10
2018-12-11T17:00:08.670Z,5.90
2018-12-11T17:02:37.831Z,5.80
2018-12-11T17:05:07.909Z,5.70
2018-12-11T17:07:39.066Z,5.70
2018-12-11T17:10:08.534Z,5.70
2018-12-11T17:12:37.947Z,5.50
2018-12-11T17:15:10.924Z,5.40
2018-12-11T17:17:40.067Z,5.20
2018-12-11T17:20:09.359Z,5.10
2018-12-11T17:22:38.505Z,5.10
2018-12-11T17:25:09.666Z,5.00
2018-12-11T17:27:38.780Z,4.90
2018-12-11T17:30:08.815Z,4.80
2018-12-11T17:32:38.021Z,4.70
2018-12-11T17:35:09.249Z,4.70
2018-12-11T17:37:39.207Z,4.60
2018-12-11T17:40:10.319Z,4.70
2018-12-11T17:42:41.276Z,4.60
2018-12-11T17:45:11.098Z,4.60
2018-12-11T17:47:41.058Z,4.60
2018-12-11T17:50:10.993Z,4.60
2018-12-11T17:52:40.105Z,4.60
2018-12-11T17:55:09.284Z,4.70
2018-12-11T17:57:38.387Z,4.70
2018-12-11T18:00:09.017Z,4.60
2018-12-11T18:02:39.609Z,4.60
2018-12-11T18:05:08.961Z,4.70
2018-12-11T18:07:39.265Z,4.70
2018-12-11T18:10:08.800Z,4.80
2018-12-11T18:12:38.028Z,4.80
2018-12-11T18:15:07.434Z,4.90
2018-12-11T18:17:37.745Z,4.80
2018-12-11T18:20:07.675Z,4.80
2018-12-11T18:22:37.030Z,4.80
2018-12-11T18:25:06.319Z,4.80
2018-12-11T18:27:35.534Z,4.80
2018-12-11T18:30:05.798Z,4.90
2018-12-11T18:32:34.999Z,4.80
2018-12-11T18:35:05.865Z,4.80
2018-12-11T18:37:34.954Z,4.90
2018-12-11T18:40:05.925Z,5.00
2018-12-11T18:42:35.750Z,5.00
2018-12-11T18:45:07.141Z,4.90
2018-12-11T18:47:36.280Z,5.00
2018-12-11T18:50:07.105Z,5.00
2018-12-11T18:52:36.501Z,4.90
2018-12-11T18:55:07.151Z,4.90
2018-12-11T18:57:36.370Z,4.90
2018-12-11T19:00:08.801Z,4.90
2018-12-11T19:02:39.084Z,4.90
2018-12-11T19:05:08.351Z,4.90
2018-12-11T19:07:38.620Z,5.00
2018-12-11T19:10:08.054Z,4.90
2018-12-11T19:12:37.338Z,4.80
2018-12-11T19:15:06.590Z,4.80
2018-12-11T19:17:35.949Z,4.80
2018-12-11T19:20:06.194Z,4.80
2018-12-11T19:22:37.492Z,4.80
2018-12-11T19:25:09.184Z,4.80
2018-12-11T19:27:38.350Z,4.80
2018-12-11T19:30:07.876Z,4.90
2018-12-11T19:32:37.090Z,4.80
2018-12-11T19:35:06.514Z,4.90
2018-12-11T19:37:35.660Z,4.80
2018-12-11T19:40:06.388Z,4.80
2018-12-11T19:42:36.636Z,4.80
2018-12-11T19:45:07.175Z,4.80
2018-12-11T19:47:36.547Z,4.80
2018-12-11T19:50:06.263Z,4.90
2018-12-11T19:52:39.674Z,4.80
2018-12-11T19:55:07.793Z,4.80
2018-12-11T19:57:36.992Z,4.80
2018-12-11T20:00:07.196Z,4.80
2018-12-11T20:02:36.356Z,4.80
2018-12-11T20:05:08.559Z,4.80
2018-12-11T20:07:39.376Z,4.80
2018-12-11T20:10:14.147Z,4.80
2018-12-11T20:12:43.837Z,4.80
2018-12-11T20:15:13.498Z,4.80
2018-12-11T20:17:42.742Z,4.70
2018-12-11T20:20:22.135Z,4.70
2018-12-11T20:22:51.244Z,4.70
2018-12-11T20:25:20.619Z,4.70
2018-12-11T20:27:50.985Z,4.80
2018-12-11T20:30:22.223Z,4.80
2018-12-11T20:32:51.680Z,4.70
2018-12-11T20:35:20.951Z,4.70
2018-12-11T20:37:50.135Z,4.80
2018-12-11T20:40:19.765Z,4.80
2018-12-11T20:42:49.963Z,4.80
2018-12-11T20:45:19.130Z,4.70
2018-12-11T20:47:48.467Z,4.70
2018-12-11T20:50:17.683Z,4.60
2018-12-11T20:52:47.901Z,4.70
2018-12-11T20:55:17.361Z,4.70
2018-12-11T20:57:46.530Z,4.80
2018-12-11T21:00:15.649Z,4.70
2018-12-11T21:02:44.916Z,4.70
2018-12-11T21:05:14.011Z,4.90
2018-12-11T21:07:43.172Z,4.90
2018-12-11T21:10:13.325Z,4.90
2018-12-11T21:12:42.592Z,4.80
2018-12-11T21:15:11.732Z,4.80
2018-12-11T21:17:40.953Z,4.70
2018-12-11T21:20:10.380Z,4.70
2018-12-11T21:22:39.505Z,4.70
2018-12-11T21:25:08.662Z,4.60
2018-12-11T21:27:37.907Z,4.70
2018-12-11T21:30:09.396Z,4.70
2018-12-11T21:32:39.835Z,4.70
2018-12-11T21:35:09.658Z,4.70
2018-12-11T21:37:41.568Z,4.70
2018-12-11T21:40:11.398Z,4.70
2018-12-11T21:42:42.287Z,4.70
2018-12-11T21:45:11.446Z,4.60
2018-12-11T21:47:41.590Z,4.70
2018-12-11T21:50:12.323Z,4.70
2018-12-11T21:52:41.475Z,4.70
2018-12-11T21:55:10.621Z,4.70
2018-12-11T21:57:40.803Z,4.70
2018-12-11T22:00:11.124Z,4.60
2018-12-11T22:02:40.424Z,4.70
2018-12-11T22:05:10.704Z,4.70
2018-12-11T22:07:39.879Z,4.70
2018-12-11T22:10:09.334Z,4.70
2018-12-11T22:12:38.451Z,4.70
2018-12-11T22:15:07.891Z,4.60
2018-12-11T22:17:37.069Z,4.70
2018-12-11T22:20:08.561Z,4.70
2018-12-11T22:22:37.781Z,4.70
2018-12-11T22:25:07.060Z,4.70
2018-12-11T22:27:36.249Z,4.70
2018-12-11T22:30:06.461Z,4.70
2018-12-11T22:32:35.650Z,4.70
2018-12-11T22:35:05.238Z,4.50
2018-12-11T22:37:34.715Z,4.40
2018-12-11T22:40:04.896Z,4.40
2018-12-11T22:42:35.189Z,4.50
2018-12-11T22:45:04.857Z,4.50
2018-12-11T22:47:35.046Z,4.60
2018-12-11T22:50:04.899Z,4.60
2018-12-11T22:52:34.061Z,4.50
2018-12-11T22:55:03.309Z,4.60
2018-12-11T22:57:32.552Z,4.60
2018-12-11T23:00:01.653Z,4.60
2018-12-11T23:02:30.974Z,4.70
2018-12-11T23:05:00.153Z,4.70
2018-12-11T23:07:29.263Z,4.70
2018-12-11T23:09:58.667Z,4.60
2018-12-11T23:12:27.839Z,4.60
2018-12-11T23:14:57.077Z,4.50
2018-12-11T23:17:26.303Z,4.50
2018-12-11T23:19:55.415Z,4.50
2018-12-11T23:22:24.581Z,4.50
2018-12-11T23:24:55.241Z,4.50
2018-12-11T23:27:24.508Z,4.50
2018-12-11T23:29:53.705Z,4.40
2018-12-11T23:32:23.520Z,4.40
2018-12-11T23:34:53.789Z,4.40
2018-12-11T23:37:22.970Z,4.30
2018-12-11T23:39:52.933Z,4.20
2018-12-11T23:42:22.242Z,4.10
2018-12-11T23:44:51.331Z,4.00
2018-12-11T23:47:20.567Z,4.10
2018-12-11T23:49:50.266Z,4.10
2018-12-11T23:52:19.496Z,4.20
2018-12-11T23:54:48.647Z,4.10
2018-12-11T23:57:17.862Z,4.10
2018-12-11T23:59:48.632Z,4.10
